Airfield :
LOGIN :

Register | Disclaimer

   EN    FR    IT 

 










Legend :    VFR   Marginal VFR   IFR   Intensive IFR   Very Intensive IFR
Visi :
Ceiling :
>= 8 km
>= 3000ft
5 to 8 km
1000 to 3000 ft
1500m to 5 km
500 to 1000 ft
800 to 1500m
200 to 500 ft
< 800m
< 200 ft
Symbols :   Thunderstorms  Fog  Heavy snow  Heavy precipitations  Wind > 20 kt
SIGMETs :     Misc.  Thunderstorms  Icing  Turbulence  Mountain Waves  Volcanic Ashes






- Airport Elevation : 433 ft


LFOC - Chateaudun

CURRENT METAR :
  • 271800Z AUTO 30010KT CAVOK 06/M00 Q1012

EXPIRED METARs :
  • 271730Z AUTO 30012KT 9999 SCT038 07/M00 Q1011
  • 271700Z AUTO 31011KT 9999 BKN036 07/01 Q1010
  • 271630Z AUTO 30020G30KT 9999 BKN035 BKN042 08/01 Q1009
  • 271600Z AUTO 30018G28KT 9999 FEW026 07/01 Q1008 NOSIG
  • 271530Z AUTO 31024G37KT 9999 SCT035 BKN042 BKN048 08/01 Q1007 BECMG 31015G25KT

TAF TAF LFOC
Valid from the 27 at 15:00 until the 28 at 15:00 UTC


271400Z 2715/2815 30023G33KT 9999 BKN024
BECMG 2715/2717 31015G25KT
BECMG 2718/2720 24010KT



MET'MAP, your aeronautical weather chart ! - Copyright ORBIFLY December 2007 - Disclaimer

ORBIFLY MET'MAP TEAM :

Programming & Development : Alexandra Zaïnal
Concept & original design : Baudouin d'Aumeries
Assistance for programming : Marc-Olivier Méhu
Technical & hardware support : Manuel Goepfert

Contact : metmap@orbifly.com




SOURCES & CREDITS :

   NOAA